sensor_id;sensor_type;location;lat;lon;timestamp;temperature;humidity
8736;DHT22;4404;49.308;12.178;2022-10-31T00:01:53;13.10;99.90
8736;DHT22;4404;49.308;12.178;2022-10-31T00:07:55;13.00;99.90
8736;DHT22;4404;49.308;12.178;2022-10-31T00:13:58;12.90;99.90
8736;DHT22;4404;49.308;12.178;2022-10-31T00:20:03;12.90;99.90
8736;DHT22;4404;49.308;12.178;2022-10-31T00:26:06;12.80;99.90
8736;DHT22;4404;49.308;12.178;2022-10-31T00:32:09;12.80;99.90
8736;DHT22;4404;49.308;12.178;2022-10-31T00:38:13;12.80;99.90
8736;DHT22;4404;49.308;12.178;2022-10-31T00:44:16;12.70;99.90
8736;DHT22;4404;49.308;12.178;2022-10-31T00:50:19;12.60;99.90
8736;DHT22;4404;49.308;12.178;2022-10-31T00:56:22;12.60;99.90
8736;DHT22;4404;49.308;12.178;2022-10-31T01:02:25;12.50;99.90
8736;DHT22;4404;49.308;12.178;2022-10-31T01:08:28;12.40;99.90
8736;DHT22;4404;49.308;12.178;2022-10-31T01:14:32;12.30;99.90
8736;DHT22;4404;49.308;12.178;2022-10-31T01:20:34;12.20;99.90
8736;DHT22;4404;49.308;12.178;2022-10-31T01:26:37;11.90;99.90
8736;DHT22;4404;49.308;12.178;2022-10-31T01:32:41;11.90;99.90
8736;DHT22;4404;49.308;12.178;2022-10-31T01:38:45;11.90;99.90
8736;DHT22;4404;49.308;12.178;2022-10-31T01:44:54;11.90;99.90
8736;DHT22;4404;49.308;12.178;2022-10-31T01:51:00;11.90;99.90
8736;DHT22;4404;49.308;12.178;2022-10-31T01:57:07;11.90;99.90
8736;DHT22;4404;49.308;12.178;2022-10-31T02:03:11;11.90;99.90
8736;DHT22;4404;49.308;12.178;2022-10-31T02:09:16;11.80;99.90
8736;DHT22;4404;49.308;12.178;2022-10-31T02:15:19;12.00;99.90
8736;DHT22;4404;49.308;12.178;2022-10-31T02:21:26;11.90;99.90
8736;DHT22;4404;49.308;12.178;2022-10-31T02:27:51;11.90;99.90
8736;DHT22;4404;49.308;12.178;2022-10-31T02:34:10;11.80;99.90
8736;DHT22;4404;49.308;12.178;2022-10-31T02:40:23;11.70;99.90
8736;DHT22;4404;49.308;12.178;2022-10-31T02:46:31;11.60;99.90
8736;DHT22;4404;49.308;12.178;2022-10-31T02:52:37;11.40;99.90
8736;DHT22;4404;49.308;12.178;2022-10-31T02:58:42;11.50;99.90
8736;DHT22;4404;49.308;12.178;2022-10-31T03:05:09;11.40;99.90
8736;DHT22;4404;49.308;12.178;2022-10-31T03:11:17;11.20;99.90
8736;DHT22;4404;49.308;12.178;2022-10-31T03:17:27;11.30;99.90
8736;DHT22;4404;49.308;12.178;2022-10-31T03:23:35;11.20;99.90
8736;DHT22;4404;49.308;12.178;2022-10-31T03:29:40;11.10;99.90
8736;DHT22;4404;49.308;12.178;2022-10-31T03:35:47;11.00;99.90
8736;DHT22;4404;49.308;12.178;2022-10-31T03:41:54;11.00;99.90
8736;DHT22;4404;49.308;12.178;2022-10-31T03:48:01;10.80;99.90
8736;DHT22;4404;49.308;12.178;2022-10-31T03:54:08;10.90;99.90
8736;DHT22;4404;49.308;12.178;2022-10-31T04:00:16;10.80;99.90
8736;DHT22;4404;49.308;12.178;2022-10-31T04:06:21;10.80;99.90
8736;DHT22;4404;49.308;12.178;2022-10-31T04:12:26;10.70;99.90
8736;DHT22;4404;49.308;12.178;2022-10-31T04:18:29;10.70;99.90
8736;DHT22;4404;49.308;12.178;2022-10-31T04:24:33;10.70;99.90
8736;DHT22;4404;49.308;12.178;2022-10-31T04:30:35;10.50;99.90
8736;DHT22;4404;49.308;12.178;2022-10-31T04:36:37;10.40;99.90
8736;DHT22;4404;49.308;12.178;2022-10-31T04:42:41;10.40;99.90
8736;DHT22;4404;49.308;12.178;2022-10-31T04:48:44;10.40;99.90
8736;DHT22;4404;49.308;12.178;2022-10-31T04:54:47;10.40;99.90
8736;DHT22;4404;49.308;12.178;2022-10-31T05:00:53;10.40;99.90
8736;DHT22;4404;49.308;12.178;2022-10-31T05:06:55;10.50;99.90
8736;DHT22;4404;49.308;12.178;2022-10-31T05:12:59;10.40;99.90
8736;DHT22;4404;49.308;12.178;2022-10-31T05:19:03;10.30;99.90
8736;DHT22;4404;49.308;12.178;2022-10-31T05:25:06;10.40;99.90
8736;DHT22;4404;49.308;12.178;2022-10-31T05:31:09;10.60;99.90
8736;DHT22;4404;49.308;12.178;2022-10-31T05:37:13;10.50;99.90
8736;DHT22;4404;49.308;12.178;2022-10-31T05:43:15;10.60;99.90
8736;DHT22;4404;49.308;12.178;2022-10-31T05:49:17;10.40;99.90
8736;DHT22;4404;49.308;12.178;2022-10-31T05:55:21;10.30;99.90
8736;DHT22;4404;49.308;12.178;2022-10-31T06:01:24;10.30;99.90
8736;DHT22;4404;49.308;12.178;2022-10-31T06:07:26;10.20;99.90
8736;DHT22;4404;49.308;12.178;2022-10-31T06:13:32;10.30;99.90
8736;DHT22;4404;49.308;12.178;2022-10-31T06:19:34;10.40;99.90
8736;DHT22;4404;49.308;12.178;2022-10-31T06:25:37;10.30;99.90
8736;DHT22;4404;49.308;12.178;2022-10-31T06:31:41;10.40;99.90
8736;DHT22;4404;49.308;12.178;2022-10-31T06:37:51;10.40;99.90
8736;DHT22;4404;49.308;12.178;2022-10-31T06:43:54;10.40;99.90
8736;DHT22;4404;49.308;12.178;2022-10-31T06:49:57;10.40;99.90
8736;DHT22;4404;49.308;12.178;2022-10-31T06:56:00;10.30;99.90
8736;DHT22;4404;49.308;12.178;2022-10-31T07:02:03;10.30;99.90
8736;DHT22;4404;49.308;12.178;2022-10-31T07:08:09;10.30;99.90
8736;DHT22;4404;49.308;12.178;2022-10-31T07:14:14;10.30;99.90
8736;DHT22;4404;49.308;12.178;2022-10-31T07:20:16;10.20;99.90
8736;DHT22;4404;49.308;12.178;2022-10-31T07:26:20;10.40;99.90
8736;DHT22;4404;49.308;12.178;2022-10-31T07:32:23;10.40;99.90
8736;DHT22;4404;49.308;12.178;2022-10-31T07:38:25;10.60;99.90
8736;DHT22;4404;49.308;12.178;2022-10-31T07:44:29;10.70;99.90
8736;DHT22;4404;49.308;12.178;2022-10-31T07:50:32;10.50;99.90
8736;DHT22;4404;49.308;12.178;2022-10-31T07:56:38;10.40;99.90
8736;DHT22;4404;49.308;12.178;2022-10-31T08:03:13;10.30;99.90
8736;DHT22;4404;49.308;12.178;2022-10-31T08:09:16;10.40;99.90
8736;DHT22;4404;49.308;12.178;2022-10-31T08:15:19;10.30;99.90
8736;DHT22;4404;49.308;12.178;2022-10-31T08:21:23;10.50;99.90
8736;DHT22;4404;49.308;12.178;2022-10-31T08:27:26;10.60;99.90
8736;DHT22;4404;49.308;12.178;2022-10-31T08:33:29;10.70;99.90
8736;DHT22;4404;49.308;12.178;2022-10-31T08:39:33;10.80;99.90
8736;DHT22;4404;49.308;12.178;2022-10-31T08:45:36;11.00;99.90
8736;DHT22;4404;49.308;12.178;2022-10-31T08:51:39;11.30;99.90
8736;DHT22;4404;49.308;12.178;2022-10-31T08:57:47;11.50;99.90
8736;DHT22;4404;49.308;12.178;2022-10-31T09:03:49;11.70;99.90
8736;DHT22;4404;49.308;12.178;2022-10-31T09:09:52;11.80;99.90
8736;DHT22;4404;49.308;12.178;2022-10-31T09:15:56;12.10;99.90
8736;DHT22;4404;49.308;12.178;2022-10-31T09:21:59;12.40;99.90
8736;DHT22;4404;49.308;12.178;2022-10-31T09:28:03;13.10;99.90
8736;DHT22;4404;49.308;12.178;2022-10-31T09:34:08;13.50;99.90
8736;DHT22;4404;49.308;12.178;2022-10-31T09:40:11;13.60;99.90
8736;DHT22;4404;49.308;12.178;2022-10-31T09:46:18;13.80;99.90
8736;DHT22;4404;49.308;12.178;2022-10-31T09:52:29;14.10;99.90
8736;DHT22;4404;49.308;12.178;2022-10-31T09:58:37;14.40;99.90
8736;DHT22;4404;49.308;12.178;2022-10-31T10:04:46;14.90;99.90
8736;DHT22;4404;49.308;12.178;2022-10-31T10:11:25;14.70;99.90
8736;DHT22;4404;49.308;12.178;2022-10-31T10:17:51;14.50;99.90
8736;DHT22;4404;49.308;12.178;2022-10-31T10:24:11;14.40;99.90
8736;DHT22;4404;49.308;12.178;2022-10-31T10:30:26;14.50;99.90
8736;DHT22;4404;49.308;12.178;2022-10-31T10:36:38;14.60;99.90
8736;DHT22;4404;49.308;12.178;2022-10-31T10:42:53;14.70;99.90
8736;DHT22;4404;49.308;12.178;2022-10-31T10:49:23;14.70;99.90
8736;DHT22;4404;49.308;12.178;2022-10-31T10:55:36;14.90;99.90
8736;DHT22;4404;49.308;12.178;2022-10-31T11:01:45;15.10;99.90
8736;DHT22;4404;49.308;12.178;2022-10-31T11:08:00;15.30;99.90
8736;DHT22;4404;49.308;12.178;2022-10-31T11:14:12;15.50;99.90
8736;DHT22;4404;49.308;12.178;2022-10-31T11:20:29;15.50;99.90
8736;DHT22;4404;49.308;12.178;2022-10-31T11:26:37;15.60;99.90
8736;DHT22;4404;49.308;12.178;2022-10-31T11:32:45;15.70;99.90
8736;DHT22;4404;49.308;12.178;2022-10-31T11:38:52;15.80;99.90
8736;DHT22;4404;49.308;12.178;2022-10-31T11:44:56;16.00;99.90
8736;DHT22;4404;49.308;12.178;2022-10-31T11:50:59;16.20;99.90
8736;DHT22;4404;49.308;12.178;2022-10-31T11:57:01;16.40;99.90
8736;DHT22;4404;49.308;12.178;2022-10-31T12:03:11;16.60;99.90
8736;DHT22;4404;49.308;12.178;2022-10-31T12:09:21;16.70;99.90
8736;DHT22;4404;49.308;12.178;2022-10-31T12:15:33;16.90;99.90
8736;DHT22;4404;49.308;12.178;2022-10-31T12:21:59;17.10;99.90
8736;DHT22;4404;49.308;12.178;2022-10-31T12:35:04;17.40;99.90
8736;DHT22;4404;49.308;12.178;2022-10-31T12:48:12;17.50;99.90
8736;DHT22;4404;49.308;12.178;2022-10-31T12:54:54;17.50;99.90
8736;DHT22;4404;49.308;12.178;2022-10-31T13:01:09;17.50;99.90
8736;DHT22;4404;49.308;12.178;2022-10-31T13:07:17;17.60;99.90
8736;DHT22;4404;49.308;12.178;2022-10-31T13:13:27;17.70;99.90
8736;DHT22;4404;49.308;12.178;2022-10-31T13:19:38;17.90;99.90
8736;DHT22;4404;49.308;12.178;2022-10-31T13:25:47;17.90;99.90
8736;DHT22;4404;49.308;12.178;2022-10-31T13:31:53;18.00;99.90
8736;DHT22;4404;49.308;12.178;2022-10-31T13:38:09;17.90;99.90
8736;DHT22;4404;49.308;12.178;2022-10-31T13:44:20;17.80;99.90
8736;DHT22;4404;49.308;12.178;2022-10-31T13:50:25;17.80;99.90
8736;DHT22;4404;49.308;12.178;2022-10-31T13:56:32;17.80;99.90
8736;DHT22;4404;49.308;12.178;2022-10-31T14:02:36;17.70;99.90
8736;DHT22;4404;49.308;12.178;2022-10-31T14:08:47;17.60;99.90
8736;DHT22;4404;49.308;12.178;2022-10-31T14:14:55;17.50;99.90
8736;DHT22;4404;49.308;12.178;2022-10-31T14:20:59;17.30;99.90
8736;DHT22;4404;49.308;12.178;2022-10-31T14:27:03;17.30;99.90
8736;DHT22;4404;49.308;12.178;2022-10-31T14:33:16;17.20;99.90
8736;DHT22;4404;49.308;12.178;2022-10-31T14:39:24;17.20;99.90
8736;DHT22;4404;49.308;12.178;2022-10-31T14:45:37;17.30;99.90
8736;DHT22;4404;49.308;12.178;2022-10-31T14:51:47;17.40;99.90
8736;DHT22;4404;49.308;12.178;2022-10-31T14:57:54;17.30;99.90
8736;DHT22;4404;49.308;12.178;2022-10-31T15:04:03;17.20;99.90
8736;DHT22;4404;49.308;12.178;2022-10-31T15:10:24;17.10;99.90
8736;DHT22;4404;49.308;12.178;2022-10-31T15:16:32;16.90;99.90
8736;DHT22;4404;49.308;12.178;2022-10-31T15:22:36;16.90;99.90
8736;DHT22;4404;49.308;12.178;2022-10-31T15:28:40;16.80;99.90
8736;DHT22;4404;49.308;12.178;2022-10-31T15:34:43;16.70;99.90
8736;DHT22;4404;49.308;12.178;2022-10-31T15:40:52;16.60;99.90
8736;DHT22;4404;49.308;12.178;2022-10-31T15:47:00;16.50;99.90
8736;DHT22;4404;49.308;12.178;2022-10-31T15:53:04;16.30;99.90
8736;DHT22;4404;49.308;12.178;2022-10-31T15:59:18;16.30;99.90
8736;DHT22;4404;49.308;12.178;2022-10-31T16:05:23;16.20;99.90
8736;DHT22;4404;49.308;12.178;2022-10-31T16:11:33;16.10;99.90
8736;DHT22;4404;49.308;12.178;2022-10-31T16:17:41;16.00;99.90
8736;DHT22;4404;49.308;12.178;2022-10-31T16:23:53;15.90;99.90
8736;DHT22;4404;49.308;12.178;2022-10-31T16:29:58;15.70;99.90
8736;DHT22;4404;49.308;12.178;2022-10-31T16:36:29;15.60;99.90
8736;DHT22;4404;49.308;12.178;2022-10-31T16:42:34;15.50;99.90
8736;DHT22;4404;49.308;12.178;2022-10-31T16:48:36;15.50;99.90
8736;DHT22;4404;49.308;12.178;2022-10-31T16:54:41;15.40;99.90
8736;DHT22;4404;49.308;12.178;2022-10-31T17:00:47;15.30;99.90
8736;DHT22;4404;49.308;12.178;2022-10-31T17:06:50;15.30;99.90
8736;DHT22;4404;49.308;12.178;2022-10-31T17:12:53;15.20;99.90
8736;DHT22;4404;49.308;12.178;2022-10-31T17:18:58;15.20;99.90
8736;DHT22;4404;49.308;12.178;2022-10-31T17:25:00;15.10;99.90
8736;DHT22;4404;49.308;12.178;2022-10-31T17:31:03;15.10;99.90
8736;DHT22;4404;49.308;12.178;2022-10-31T17:37:09;15.00;99.90
8736;DHT22;4404;49.308;12.178;2022-10-31T17:43:12;14.90;99.90
8736;DHT22;4404;49.308;12.178;2022-10-31T17:49:14;15.00;99.90
8736;DHT22;4404;49.308;12.178;2022-10-31T17:55:18;14.90;99.90
8736;DHT22;4404;49.308;12.178;2022-10-31T18:01:21;14.80;99.90
8736;DHT22;4404;49.308;12.178;2022-10-31T18:07:23;14.80;99.90
8736;DHT22;4404;49.308;12.178;2022-10-31T18:13:28;14.80;99.90
8736;DHT22;4404;49.308;12.178;2022-10-31T18:19:31;14.70;99.90
8736;DHT22;4404;49.308;12.178;2022-10-31T18:25:33;14.50;99.90
8736;DHT22;4404;49.308;12.178;2022-10-31T18:31:39;14.50;99.90
8736;DHT22;4404;49.308;12.178;2022-10-31T18:37:43;14.40;99.90
8736;DHT22;4404;49.308;12.178;2022-10-31T18:43:45;14.20;99.90
8736;DHT22;4404;49.308;12.178;2022-10-31T18:49:50;14.20;99.90
8736;DHT22;4404;49.308;12.178;2022-10-31T18:55:52;14.00;99.90
8736;DHT22;4404;49.308;12.178;2022-10-31T19:01:57;14.10;99.90
8736;DHT22;4404;49.308;12.178;2022-10-31T19:08:01;14.10;99.90
8736;DHT22;4404;49.308;12.178;2022-10-31T19:14:04;14.00;99.90
8736;DHT22;4404;49.308;12.178;2022-10-31T19:20:09;14.00;99.90
8736;DHT22;4404;49.308;12.178;2022-10-31T19:26:13;14.00;99.90
8736;DHT22;4404;49.308;12.178;2022-10-31T19:32:16;13.90;99.90
8736;DHT22;4404;49.308;12.178;2022-10-31T19:38:18;13.80;99.90
8736;DHT22;4404;49.308;12.178;2022-10-31T19:44:22;13.80;99.90
8736;DHT22;4404;49.308;12.178;2022-10-31T19:50:25;13.80;99.90
8736;DHT22;4404;49.308;12.178;2022-10-31T19:56:29;13.70;99.90
8736;DHT22;4404;49.308;12.178;2022-10-31T20:02:33;13.70;99.90
8736;DHT22;4404;49.308;12.178;2022-10-31T20:08:36;13.70;99.90
8736;DHT22;4404;49.308;12.178;2022-10-31T20:14:39;13.60;99.90
8736;DHT22;4404;49.308;12.178;2022-10-31T20:20:45;13.60;99.90
8736;DHT22;4404;49.308;12.178;2022-10-31T20:26:48;13.60;99.90
8736;DHT22;4404;49.308;12.178;2022-10-31T20:32:50;13.60;99.90
8736;DHT22;4404;49.308;12.178;2022-10-31T20:38:54;13.60;99.90
8736;DHT22;4404;49.308;12.178;2022-10-31T20:44:57;13.50;99.90
8736;DHT22;4404;49.308;12.178;2022-10-31T20:51:01;13.60;99.90
8736;DHT22;4404;49.308;12.178;2022-10-31T20:57:06;13.50;99.90
8736;DHT22;4404;49.308;12.178;2022-10-31T21:03:09;13.50;99.90
8736;DHT22;4404;49.308;12.178;2022-10-31T21:09:12;13.50;99.90
8736;DHT22;4404;49.308;12.178;2022-10-31T21:15:17;13.40;99.90
8736;DHT22;4404;49.308;12.178;2022-10-31T21:21:22;13.30;99.90
8736;DHT22;4404;49.308;12.178;2022-10-31T21:27:26;13.30;99.90
8736;DHT22;4404;49.308;12.178;2022-10-31T21:33:29;13.30;99.90
8736;DHT22;4404;49.308;12.178;2022-10-31T21:39:32;13.30;99.90
8736;DHT22;4404;49.308;12.178;2022-10-31T21:45:34;13.30;99.90
8736;DHT22;4404;49.308;12.178;2022-10-31T21:51:38;13.20;99.90
8736;DHT22;4404;49.308;12.178;2022-10-31T21:57:45;13.00;99.90
8736;DHT22;4404;49.308;12.178;2022-10-31T22:03:48;12.90;99.90
8736;DHT22;4404;49.308;12.178;2022-10-31T22:09:52;12.80;99.90
8736;DHT22;4404;49.308;12.178;2022-10-31T22:15:54;12.60;99.90
8736;DHT22;4404;49.308;12.178;2022-10-31T22:22:02;12.50;99.90
8736;DHT22;4404;49.308;12.178;2022-10-31T22:28:09;12.40;99.90
8736;DHT22;4404;49.308;12.178;2022-10-31T22:34:12;12.30;99.90
8736;DHT22;4404;49.308;12.178;2022-10-31T22:40:15;12.30;99.90
8736;DHT22;4404;49.308;12.178;2022-10-31T22:46:21;12.20;99.90
8736;DHT22;4404;49.308;12.178;2022-10-31T22:52:24;12.30;99.90
8736;DHT22;4404;49.308;12.178;2022-10-31T22:58:28;12.30;99.90
8736;DHT22;4404;49.308;12.178;2022-10-31T23:04:32;12.30;99.90
8736;DHT22;4404;49.308;12.178;2022-10-31T23:10:35;12.40;99.90
8736;DHT22;4404;49.308;12.178;2022-10-31T23:16:45;12.30;99.90
8736;DHT22;4404;49.308;12.178;2022-10-31T23:22:50;12.30;99.90
8736;DHT22;4404;49.308;12.178;2022-10-31T23:28:52;12.20;99.90
8736;DHT22;4404;49.308;12.178;2022-10-31T23:34:56;12.00;99.90
8736;DHT22;4404;49.308;12.178;2022-10-31T23:41:03;12.00;99.90
8736;DHT22;4404;49.308;12.178;2022-10-31T23:47:06;12.00;99.90
8736;DHT22;4404;49.308;12.178;2022-10-31T23:53:09;12.00;99.90
8736;DHT22;4404;49.308;12.178;2022-10-31T23:59:12;11.90;99.90
